Time;durP1;ratioP1;P1;durP2;ratioP2;P2;SDS_P1;SDS_P2;PMS_P1;PMS_P2;Temp;Humidity;BMP_temperature;BMP_pressure;BME280_temperature;BME280_humidity;BME280_pressure;Samples;Min_cycle;Max_cycle;Signal;HPM_P1;HPM_P2
2023/09/17 00:01:47;;;;;;;5.35;4.60;;;;;;;18.30;100.00;96548.34;5111633;28;20234;-56
2023/09/17 00:04:14;;;;;;;4.97;4.57;;;;;;;18.30;100.00;96553.72;5111743;28;20704;-56
2023/09/17 00:06:42;;;;;;;5.03;4.53;;;;;;;18.30;100.00;96554.53;5111690;28;20214;-57
2023/09/17 00:09:08;;;;;;;4.95;4.43;;;;;;;18.32;100.00;96552.50;5110765;28;20236;-55
2023/09/17 00:11:35;;;;;;;5.57;5.05;;;;;;;18.33;100.00;96553.31;5111367;28;20205;-56
2023/09/17 00:14:03;;;;;;;5.10;4.65;;;;;;;18.34;100.00;96555.00;5111136;28;20629;-56
2023/09/17 00:16:31;;;;;;;5.53;5.03;;;;;;;18.36;100.00;96548.41;5111432;28;20193;-56
2023/09/17 00:18:57;;;;;;;4.95;4.65;;;;;;;18.40;100.00;96556.88;5111081;28;20280;-55
2023/09/17 00:21:24;;;;;;;5.35;4.75;;;;;;;18.40;100.00;96547.00;5111217;28;20648;-57
2023/09/17 00:23:50;;;;;;;5.32;4.82;;;;;;;18.44;100.00;96550.13;5110846;28;20252;-57
2023/09/17 00:26:17;;;;;;;9.32;5.65;;;;;;;18.46;100.00;96548.06;5111215;28;20212;-57
2023/09/17 00:28:43;;;;;;;8.60;4.85;;;;;;;18.47;100.00;96544.38;5110566;28;20241;-56
2023/09/17 00:31:11;;;;;;;4.60;4.30;;;;;;;18.47;100.00;96547.06;5111467;28;20300;-56
2023/09/17 00:33:37;;;;;;;6.05;5.05;;;;;;;18.49;100.00;96550.38;5113251;28;20193;-56
2023/09/17 00:36:04;;;;;;;5.18;4.78;;;;;;;18.48;100.00;96554.06;5111514;28;20197;-57
2023/09/17 00:38:30;;;;;;;5.30;4.90;;;;;;;18.47;100.00;96549.72;5112789;28;20209;-58
2023/09/17 00:40:57;;;;;;;4.90;4.57;;;;;;;18.48;100.00;96554.06;5111769;28;20205;-57
2023/09/17 00:43:23;;;;;;;6.82;5.30;;;;;;;18.49;100.00;96552.22;5111096;28;20232;-57
2023/09/17 00:45:50;;;;;;;5.40;4.90;;;;;;;18.52;100.00;96546.50;5111064;28;20209;-57
2023/09/17 00:48:18;;;;;;;4.97;4.60;;;;;;;18.54;100.00;96557.84;5110948;28;20201;-55
2023/09/17 00:50:44;;;;;;;6.25;5.15;;;;;;;18.55;100.00;96563.00;5111507;28;20215;-57
2023/09/17 00:53:11;;;;;;;5.80;5.28;;;;;;;18.54;100.00;96556.00;5111260;28;20197;-56
2023/09/17 00:55:38;;;;;;;5.47;5.07;;;;;;;18.54;100.00;96550.63;5110495;28;20214;-56
2023/09/17 00:58:05;;;;;;;5.60;5.13;;;;;;;18.52;100.00;96552.69;5111268;28;20556;-55
2023/09/17 01:00:35;;;;;;;5.50;4.97;;;;;;;18.53;100.00;96548.16;5111370;28;20224;-56
2023/09/17 01:03:02;;;;;;;5.57;5.10;;;;;;;18.52;100.00;96547.34;5110999;28;20732;-57
2023/09/17 01:05:36;;;;;;;5.15;4.85;;;;;;;18.52;100.00;96547.34;5110536;28;20633;-56
2023/09/17 01:08:03;;;;;;;5.10;4.70;;;;;;;18.53;100.00;96553.53;5111121;28;20192;-57
2023/09/17 01:10:30;;;;;;;5.95;5.53;;;;;;;18.57;100.00;96550.25;5110836;28;20219;-57
2023/09/17 01:12:56;;;;;;;5.32;4.93;;;;;;;18.56;100.00;96553.97;5111725;28;20197;-56
2023/09/17 01:15:23;;;;;;;6.93;4.80;;;;;;;18.54;100.00;96550.63;5110179;28;20208;-57
2023/09/17 01:17:50;;;;;;;5.93;5.38;;;;;;;18.56;100.00;96553.97;5111170;28;20308;-56
2023/09/17 01:20:29;;;;;;;5.40;4.97;;;;;;;18.54;100.00;96547.97;5111441;28;20304;-56
2023/09/17 01:23:00;;;;;;;5.43;4.93;;;;;;;18.53;100.00;96558.88;5110765;28;20235;-56
2023/09/17 01:25:42;;;;;;;5.65;5.03;;;;;;;18.49;100.00;96558.41;5113161;28;20193;-56
2023/09/17 01:28:12;;;;;;;5.43;4.65;;;;;;;18.49;100.00;96555.72;5112934;28;20285;-57
2023/09/17 01:30:41;;;;;;;5.88;5.30;;;;;;;18.50;100.00;96559.22;5111708;28;20213;-57
2023/09/17 01:33:09;;;;;;;8.07;5.50;;;;;;;18.50;100.00;96543.97;5110786;28;20201;-56
2023/09/17 01:35:39;;;;;;;5.95;5.00;;;;;;;18.51;100.00;96552.88;5111054;28;20205;-55
2023/09/17 01:38:08;;;;;;;5.57;5.18;;;;;;;18.51;100.00;96552.88;5110779;28;20197;-55
2023/09/17 01:40:37;;;;;;;5.43;4.90;;;;;;;18.49;100.00;96558.41;5110206;28;20197;-56
2023/09/17 01:43:04;;;;;;;5.38;4.90;;;;;;;18.52;100.00;96551.88;5110160;28;20222;-56
2023/09/17 01:45:32;;;;;;;5.80;4.90;;;;;;;18.51;100.00;96559.06;5110649;28;20542;-55
2023/09/17 01:48:00;;;;;;;5.40;4.85;;;;;;;18.51;100.00;96556.38;5112350;28;20208;-55
2023/09/17 01:50:28;;;;;;;4.80;4.43;;;;;;;18.53;100.00;96556.22;5114499;28;20546;-56
2023/09/17 01:52:55;;;;;;;5.90;5.13;;;;;;;18.52;100.00;96557.22;5115116;28;20202;-56
2023/09/17 01:55:22;;;;;;;5.13;4.50;;;;;;;18.53;100.00;96565.03;5113618;28;20671;-55
2023/09/17 01:57:49;;;;;;;5.25;4.85;;;;;;;18.51;100.00;96569.78;5114443;28;20213;-57
2023/09/17 02:00:16;;;;;;;5.68;5.15;;;;;;;18.50;100.00;96565.41;5113631;28;20201;-56
2023/09/17 02:02:47;;;;;;;5.60;5.10;;;;;;;18.49;100.00;96569.13;5114356;28;20193;-56
2023/09/17 02:05:16;;;;;;;5.60;5.20;;;;;;;18.51;100.00;96567.09;5114370;28;20197;-56
2023/09/17 02:07:42;;;;;;;5.40;4.90;;;;;;;18.50;100.00;96573.44;5114340;28;20212;-56
2023/09/17 02:10:09;;;;;;;6.53;5.05;;;;;;;18.50;100.00;96570.75;5113641;28;20205;-57
2023/09/17 02:12:35;;;;;;;7.30;5.38;;;;;;;18.50;100.00;96577.97;5114136;28;20220;-56
2023/09/17 02:15:03;;;;;;;6.22;5.00;;;;;;;18.50;100.00;96580.63;5113752;28;20503;-56
2023/09/17 02:17:29;;;;;;;8.73;4.93;;;;;;;18.49;100.00;96585.19;5114203;28;20205;-56
2023/09/17 02:19:57;;;;;;;9.10;5.10;;;;;;;18.49;100.00;96579.00;5113988;28;20197;-56
2023/09/17 02:22:23;;;;;;;6.55;5.40;;;;;;;18.49;100.00;96579.84;5114191;28;20208;-56
2023/09/17 02:24:50;;;;;;;5.35;4.78;;;;;;;18.49;100.00;96574.47;5113445;28;20217;-56
2023/09/17 02:27:16;;;;;;;5.70;4.70;;;;;;;18.52;100.00;96579.47;5112984;28;20197;-57
2023/09/17 02:29:43;;;;;;;5.00;4.60;;;;;;;18.52;100.00;96578.66;5113163;28;20229;-56
2023/09/17 02:32:10;;;;;;;6.05;5.30;;;;;;;18.49;100.00;96574.47;5113820;28;20208;-57
2023/09/17 02:34:38;;;;;;;5.60;5.03;;;;;;;18.52;100.00;96578.66;5113463;28;20189;-56
2023/09/17 02:37:05;;;;;;;6.35;4.95;;;;;;;18.50;100.00;96581.47;5113358;28;20725;-56
2023/09/17 02:39:35;;;;;;;5.22;4.90;;;;;;;18.50;100.00;96581.47;5112966;28;20197;-57
2023/09/17 02:42:02;;;;;;;6.40;4.85;;;;;;;18.46;100.00;96580.19;5113349;28;20232;-56
2023/09/17 02:44:28;;;;;;;5.90;4.78;;;;;;;18.46;100.00;96576.72;5113037;28;20235;-56
2023/09/17 02:46:54;;;;;;;5.25;4.72;;;;;;;18.46;100.00;96569.50;5113828;28;20514;-57
2023/09/17 02:49:21;;;;;;;6.05;5.45;;;;;;;18.44;100.00;96573.38;5113122;28;20208;-57
2023/09/17 02:51:48;;;;;;;5.18;4.68;;;;;;;18.45;100.00;96569.69;5113713;28;20281;-57
2023/09/17 02:54:16;;;;;;;6.72;4.63;;;;;;;18.42;100.00;96570.91;5112704;28;20193;-57
2023/09/17 02:56:43;;;;;;;5.25;4.75;;;;;;;18.40;100.00;96559.56;5113183;28;20209;-56
2023/09/17 02:59:09;;;;;;;5.30;4.80;;;;;;;18.38;100.00;96557.09;5112383;28;20208;-56
2023/09/17 03:01:36;;;;;;;5.25;4.75;;;;;;;18.38;100.00;96556.25;5112686;28;20212;-57
2023/09/17 03:04:02;;;;;;;6.05;4.80;;;;;;;18.36;100.00;96552.94;5112601;28;20400;-56
2023/09/17 03:06:30;;;;;;;8.48;5.22;;;;;;;18.35;100.00;96556.66;5113105;28;20267;-57
2023/09/17 03:08:57;;;;;;;5.25;4.78;;;;;;;18.33;100.00;96553.31;5112727;28;20343;-57
2023/09/17 03:11:26;;;;;;;4.80;4.50;;;;;;;18.30;100.00;96557.22;5113117;28;20208;-56
2023/09/17 03:13:53;;;;;;;5.13;4.60;;;;;;;18.31;100.00;96552.69;5112553;28;20212;-56
2023/09/17 03:16:19;;;;;;;5.97;4.55;;;;;;;18.30;100.00;96553.72;5112872;28;20206;-56
2023/09/17 03:18:46;;;;;;;5.30;4.80;;;;;;;18.31;100.00;96558.06;5113553;28;20533;-56
2023/09/17 03:21:13;;;;;;;4.93;4.53;;;;;;;18.30;100.00;96564.41;5113489;28;20201;-56
2023/09/17 03:23:39;;;;;;;5.63;4.65;;;;;;;18.32;100.00;96560.53;5112711;28;20217;-56
2023/09/17 03:26:06;;;;;;;4.45;4.15;;;;;;;18.30;100.00;96559.06;5112473;28;20211;-56
2023/09/17 03:28:34;;;;;;;7.10;5.00;;;;;;;18.31;100.00;96560.72;5112634;28;20248;-57
2023/09/17 03:31:01;;;;;;;6.95;5.35;;;;;;;18.29;100.00;96560.06;5111714;28;20647;-57
2023/09/17 03:33:29;;;;;;;7.18;5.32;;;;;;;18.28;100.00;96567.28;5112440;28;20241;-56
2023/09/17 03:35:56;;;;;;;7.57;5.07;;;;;;;18.27;100.00;96572.84;5112848;28;20244;-59
2023/09/17 03:38:22;;;;;;;6.70;5.35;;;;;;;18.28;100.00;96569.16;5114659;28;20204;-57
2023/09/17 03:40:48;;;;;;;5.72;5.28;;;;;;;18.28;100.00;96571.84;5115533;28;20224;-56
2023/09/17 03:43:15;;;;;;;5.38;4.88;;;;;;;18.28;100.00;96574.50;5116096;28;20212;-57
2023/09/17 03:45:43;;;;;;;5.93;5.20;;;;;;;18.30;100.00;96564.41;5120565;28;20225;-55
2023/09/17 03:48:09;;;;;;;5.47;5.07;;;;;;;18.29;100.00;96568.09;5112716;28;20755;-56
2023/09/17 03:50:39;;;;;;;5.68;5.15;;;;;;;18.30;100.00;96559.06;5111883;28;20305;-56
2023/09/17 03:53:06;;;;;;;7.10;5.40;;;;;;;18.28;100.00;96559.25;5111716;28;20223;-57
2023/09/17 03:55:33;;;;;;;5.60;5.10;;;;;;;18.27;100.00;96562.13;5111124;28;20842;-56
2023/09/17 03:58:00;;;;;;;6.57;5.70;;;;;;;18.27;100.00;96560.28;5113241;28;20201;-56
2023/09/17 04:00:27;;;;;;;6.18;5.57;;;;;;;18.29;100.00;96557.41;5113324;28;20205;-57
2023/09/17 04:02:55;;;;;;;5.13;4.70;;;;;;;18.27;100.00;96554.94;5116005;28;20201;-56
2023/09/17 04:05:21;;;;;;;5.63;5.10;;;;;;;18.27;100.00;96556.78;5112102;28;20229;-57
2023/09/17 04:07:48;;;;;;;6.20;5.03;;;;;;;18.27;100.00;96565.66;5119471;28;20205;-56
2023/09/17 04:10:16;;;;;;;6.53;4.78;;;;;;;18.27;100.00;96559.47;5111468;28;20207;-56
2023/09/17 04:12:43;;;;;;;5.50;5.00;;;;;;;18.26;100.00;96563.16;5110686;28;20217;-57
2023/09/17 04:15:13;;;;;;;5.50;5.05;;;;;;;18.26;100.00;96568.50;5111380;28;20503;-55
2023/09/17 04:17:39;;;;;;;5.53;5.13;;;;;;;18.23;100.00;96566.22;5111332;28;20209;-57
2023/09/17 04:20:11;;;;;;;6.18;5.45;;;;;;;18.22;100.00;96568.06;5110915;28;20614;-57
2023/09/17 04:22:37;;;;;;;4.60;4.30;;;;;;;18.25;100.00;96573.03;5111641;28;20526;-57
2023/09/17 04:25:04;;;;;;;5.53;4.68;;;;;;;18.23;100.00;96575.06;5111016;28;20241;-56
2023/09/17 04:27:32;;;;;;;4.57;4.22;;;;;;;18.20;100.00;96566.59;5111450;28;20205;-56
2023/09/17 04:29:58;;;;;;;7.28;4.80;;;;;;;18.17;100.00;96564.31;5110939;28;20256;-56
2023/09/17 04:32:24;;;;;;;5.68;5.28;;;;;;;18.16;100.00;96566.16;5110752;28;20652;-57
2023/09/17 04:34:51;;;;;;;5.47;4.60;;;;;;;18.16;100.00;96584.06;5111571;28;20535;-56
2023/09/17 04:37:19;;;;;;;5.13;4.78;;;;;;;18.13;100.00;96579.09;5111215;28;20205;-57
2023/09/17 04:39:46;;;;;;;5.43;4.93;;;;;;;18.10;100.00;96580.31;5111251;28;20201;-56
2023/09/17 04:42:12;;;;;;;7.60;5.07;;;;;;;18.10;100.00;96585.66;5111638;28;20208;-56
2023/09/17 04:44:39;;;;;;;5.00;4.60;;;;;;;18.09;100.00;96577.81;5110437;28;20213;-56
2023/09/17 04:47:06;;;;;;;5.10;4.55;;;;;;;18.07;100.00;96579.84;5111196;28;20634;-56
2023/09/17 04:49:33;;;;;;;5.93;5.25;;;;;;;18.04;100.00;96580.22;5111666;28;20209;-57
2023/09/17 04:52:00;;;;;;;5.00;4.60;;;;;;;18.01;100.00;96588.63;5111078;28;21347;-56
2023/09/17 04:54:28;;;;;;;5.22;4.70;;;;;;;18.00;100.00;96586.97;5110369;28;20197;-57
2023/09/17 04:56:54;;;;;;;7.25;4.93;;;;;;;17.98;100.00;96589.03;5111202;28;20193;-56
2023/09/17 04:59:22;;;;;;;5.00;4.55;;;;;;;17.96;100.00;96593.75;5110807;28;20205;-55
2023/09/17 05:01:48;;;;;;;4.85;4.28;;;;;;;17.94;100.00;96603.78;5112101;28;20612;-56
2023/09/17 05:04:15;;;;;;;5.07;4.47;;;;;;;17.92;100.00;96595.13;5111415;28;20217;-57
2023/09/17 05:06:42;;;;;;;5.25;4.75;;;;;;;17.89;100.00;96605.19;5111730;28;20205;-58
2023/09/17 05:09:08;;;;;;;5.40;4.90;;;;;;;17.89;100.00;96599.00;5110672;28;20254;-58
2023/09/17 05:11:36;;;;;;;6.55;4.63;;;;;;;17.90;100.00;96598.00;5111502;28;20212;-57
2023/09/17 05:14:03;;;;;;;5.55;5.03;;;;;;;17.94;100.00;96595.75;5110913;28;20216;-57
2023/09/17 05:16:29;;;;;;;6.32;5.10;;;;;;;17.94;100.00;96596.59;5111014;28;20220;-58
2023/09/17 05:18:55;;;;;;;5.35;4.97;;;;;;;17.96;100.00;96596.41;5110925;28;20201;-56
2023/09/17 05:21:22;;;;;;;5.18;4.88;;;;;;;17.97;100.00;96595.38;5110739;28;20201;-56
2023/09/17 05:23:48;;;;;;;6.43;4.80;;;;;;;17.99;100.00;96604.06;5113710;28;20208;-56
2023/09/17 05:26:15;;;;;;;4.97;4.55;;;;;;;17.99;100.00;96604.06;5114687;28;20225;-57
2023/09/17 05:28:44;;;;;;;5.28;4.63;;;;;;;18.03;100.00;96600.78;5114130;28;20331;-56
2023/09/17 05:31:11;;;;;;;4.70;4.40;;;;;;;18.01;100.00;96600.16;5114429;28;20539;-56
2023/09/17 05:33:37;;;;;;;5.07;4.63;;;;;;;18.05;100.00;96597.94;5113834;28;20659;-57
2023/09/17 05:36:04;;;;;;;6.57;4.57;;;;;;;18.08;100.00;96597.56;5114628;28;20201;-57
2023/09/17 05:38:30;;;;;;;4.93;4.40;;;;;;;18.13;100.00;96601.34;5114742;28;20212;-57
2023/09/17 05:40:57;;;;;;;6.00;4.32;;;;;;;18.19;100.00;96602.41;5114180;28;20201;-58
2023/09/17 05:43:24;;;;;;;5.68;4.10;;;;;;;18.17;100.00;96602.63;5114289;28;20216;-56
2023/09/17 05:45:56;;;;;;;4.82;3.88;;;;;;;18.20;100.00;96601.41;5114018;28;20235;-58
2023/09/17 05:48:23;;;;;;;4.43;4.03;;;;;;;18.20;100.00;96599.56;5115096;28;20216;-56
2023/09/17 05:50:50;;;;;;;4.57;3.90;;;;;;;18.21;100.00;96592.34;5114282;28;20620;-55
2023/09/17 05:53:16;;;;;;;5.70;4.22;;;;;;;18.24;100.00;96600.84;5114556;28;20265;-57
2023/09/17 05:55:44;;;;;;;4.40;3.80;;;;;;;18.28;100.00;96595.91;5113409;28;20652;-56
2023/09/17 05:58:10;;;;;;;4.30;3.70;;;;;;;18.32;100.00;96595.31;5113920;28;20201;-56
2023/09/17 06:00:37;;;;;;;6.38;5.78;;;;;;;18.33;100.00;96590.81;5113672;28;20202;-57
2023/09/17 06:03:05;;;;;;;5.22;4.63;;;;;;;18.36;100.00;96595.78;5114403;28;20201;-56
2023/09/17 06:05:32;;;;;;;5.45;3.67;;;;;;;18.34;100.00;96593.31;5113247;28;20217;-55
2023/09/17 06:07:58;;;;;;;4.40;3.50;;;;;;;18.35;100.00;96586.09;5114388;28;20209;-57
2023/09/17 06:10:29;;;;;;;4.40;3.67;;;;;;;18.35;100.00;96594.13;5113683;28;20243;-57
2023/09/17 06:12:55;;;;;;;3.83;3.53;;;;;;;18.45;100.00;96600.00;5113951;28;20275;-59
2023/09/17 06:15:22;;;;;;;7.93;4.00;;;;;;;18.53;100.00;96597.19;5113281;28;20194;-57
2023/09/17 06:17:48;;;;;;;4.47;3.83;;;;;;;18.62;100.00;96595.19;5114181;28;20212;-59
2023/09/17 06:20:17;;;;;;;4.50;3.47;;;;;;;18.65;100.00;96603.69;5114183;28;20205;-56
2023/09/17 06:22:45;;;;;;;4.28;3.90;;;;;;;18.72;100.00;96588.47;5114498;28;20231;-56
2023/09/17 06:25:12;;;;;;;4.25;3.90;;;;;;;18.93;100.00;96586.75;5113709;28;20253;-57
2023/09/17 06:27:38;;;;;;;5.60;4.15;;;;;;;19.27;100.00;96594.81;5114255;28;20232;-60
2023/09/17 06:30:06;;;;;;;4.13;3.80;;;;;;;19.87;100.00;96594.06;5113008;28;20259;-57
2023/09/17 06:32:33;;;;;;;4.70;4.30;;;;;;;20.67;100.00;96599.38;5113623;28;20201;-56
2023/09/17 06:34:59;;;;;;;4.68;4.28;;;;;;;21.48;100.00;96599.88;5112742;28;20220;-57
2023/09/17 06:37:28;;;;;;;5.28;4.88;;;;;;;22.14;100.00;96599.63;5114092;28;20208;-58
2023/09/17 06:39:54;;;;;;;5.28;4.78;;;;;;;22.64;100.00;96606.72;5113424;28;20203;-58
2023/09/17 06:42:21;;;;;;;7.22;6.50;;;;;;;22.92;100.00;96609.00;5114423;28;20205;-57
2023/09/17 06:44:47;;;;;;;7.97;7.20;;;;;;;22.97;100.00;96605.66;5115024;28;20228;-55
2023/09/17 06:47:15;;;;;;;5.97;5.47;;;;;;;23.14;100.00;96607.56;5116166;28;20289;-57
2023/09/17 06:49:42;;;;;;;5.00;4.70;;;;;;;23.54;100.00;96605.31;5117107;28;20232;-56
2023/09/17 06:52:08;;;;;;;5.30;4.80;;;;;;;23.98;100.00;96606.84;5115372;28;20216;-60
2023/09/17 06:54:36;;;;;;;5.43;4.93;;;;;;;24.19;100.00;96614.50;5115110;28;20212;-57
2023/09/17 06:57:04;;;;;;;4.93;4.55;;;;;;;24.26;98.83;96611.72;5116429;28;20201;-57
2023/09/17 06:59:30;;;;;;;5.20;4.68;;;;;;;24.18;98.42;96612.00;5114742;28;20597;-55
2023/09/17 07:01:56;;;;;;;6.13;4.93;;;;;;;24.30;97.35;96610.19;5113754;28;20216;-57
2023/09/17 07:04:24;;;;;;;5.10;4.68;;;;;;;23.87;99.02;96614.91;5113534;28;20193;-57
2023/09/17 07:06:50;;;;;;;6.47;4.65;;;;;;;23.53;100.00;96619.84;5114319;28;20205;-56
2023/09/17 07:09:17;;;;;;;5.00;4.47;;;;;;;23.00;100.00;96614.13;5112964;28;20220;-57
2023/09/17 07:11:45;;;;;;;6.78;4.25;;;;;;;22.54;100.00;96609.09;5112945;28;20292;-59
2023/09/17 07:14:12;;;;;;;5.35;4.43;;;;;;;22.32;100.00;96613.16;5112472;28;20213;-56
2023/09/17 07:16:39;;;;;;;5.05;4.65;;;;;;;22.10;100.00;96611.88;5112852;28;20189;-58
2023/09/17 07:19:05;;;;;;;5.22;4.72;;;;;;;22.00;100.00;96616.91;5112650;28;20209;-58
2023/09/17 07:21:32;;;;;;;5.43;5.03;;;;;;;21.81;100.00;96614.06;5112871;28;20205;-57
2023/09/17 07:23:59;;;;;;;5.45;5.05;;;;;;;21.80;100.00;96607.00;5112775;28;20633;-56
2023/09/17 07:26:25;;;;;;;4.88;4.47;;;;;;;21.66;100.00;96605.41;5113125;28;20229;-56
2023/09/17 07:28:53;;;;;;;4.90;4.50;;;;;;;21.60;100.00;96603.59;5111231;28;20232;-57
2023/09/17 07:31:20;;;;;;;5.18;4.32;;;;;;;21.58;100.00;96602.94;5112799;28;20201;-57
2023/09/17 07:33:46;;;;;;;4.72;4.32;;;;;;;21.62;100.00;96603.34;5112033;28;20234;-57
2023/09/17 07:36:13;;;;;;;8.98;4.65;;;;;;;21.53;100.00;96610.84;5112437;28;20197;-56
2023/09/17 07:38:40;;;;;;;5.15;4.75;;;;;;;21.56;100.00;96610.44;5112054;28;20262;-57
2023/09/17 07:41:06;;;;;;;4.60;4.20;;;;;;;21.57;100.00;96606.69;5111903;28;20201;-58
2023/09/17 07:43:33;;;;;;;4.72;4.32;;;;;;;21.65;100.00;96598.38;5112336;28;20220;-58
2023/09/17 07:46:00;;;;;;;7.82;4.35;;;;;;;21.72;100.00;96599.16;5111116;28;20232;-57
2023/09/17 07:48:29;;;;;;;4.20;3.90;;;;;;;21.77;100.00;96596.66;5111013;28;20216;-57
2023/09/17 07:50:56;;;;;;;4.90;3.72;;;;;;;21.87;100.00;96600.75;5112201;28;20225;-57
2023/09/17 07:53:23;;;;;;;3.30;3.10;;;;;;;21.89;100.00;96604.91;5112071;28;20205;-57
2023/09/17 07:55:49;;;;;;;3.90;3.40;;;;;;;21.97;100.00;96601.97;5111926;28;20208;-57
2023/09/17 07:58:16;;;;;;;3.60;3.30;;;;;;;22.04;100.00;96601.94;5111653;28;20220;-57
2023/09/17 08:00:45;;;;;;;4.50;3.45;;;;;;;22.11;100.00;96608.94;5112048;28;20216;-58
2023/09/17 08:03:13;;;;;;;3.60;3.40;;;;;;;22.21;100.00;96601.22;5113320;28;20205;-58
2023/09/17 08:05:40;;;;;;;3.80;3.45;;;;;;;22.25;100.00;96604.31;5112754;28;20274;-58
2023/09/17 08:08:07;;;;;;;4.05;3.17;;;;;;;22.30;100.00;96596.41;5111617;28;20216;-59
2023/09/17 08:10:34;;;;;;;3.75;2.90;;;;;;;22.31;100.00;96598.91;5111993;28;20224;-58
2023/09/17 08:13:00;;;;;;;3.92;3.65;;;;;;;22.42;100.00;96589.28;5114219;28;20201;-58
2023/09/17 08:15:27;;;;;;;3.40;3.10;;;;;;;22.48;100.00;96601.88;5116837;28;20193;-65
2023/09/17 08:17:54;;;;;;;3.22;3.03;;;;;;;22.59;100.00;96603.03;5113412;28;20614;-55
2023/09/17 08:20:22;;;;;;;3.53;3.15;;;;;;;22.64;100.00;96601.34;5111213;28;20208;-58
2023/09/17 08:22:50;;;;;;;3.47;3.17;;;;;;;22.73;100.00;96605.47;5112169;28;20239;-55
2023/09/17 08:25:16;;;;;;;4.28;3.08;;;;;;;22.79;100.00;96609.97;5110754;28;20232;-55
2023/09/17 08:27:44;;;;;;;4.53;3.05;;;;;;;22.85;100.00;96604.75;5111910;28;20522;-56
2023/09/17 08:30:12;;;;;;;3.97;3.17;;;;;;;22.99;100.00;96598.19;5111058;28;20221;-56
2023/09/17 08:32:39;;;;;;;3.38;3.03;;;;;;;23.10;99.22;96597.44;5112176;28;20254;-57
2023/09/17 08:35:07;;;;;;;3.42;3.10;;;;;;;23.27;100.00;96604.75;5113905;28;20207;-56
2023/09/17 08:37:36;;;;;;;3.47;3.17;;;;;;;23.47;99.16;96601.88;5115523;28;20205;-56
2023/09/17 08:40:05;;;;;;;3.70;3.00;;;;;;;23.61;94.40;96606.06;5114739;28;20193;-57
2023/09/17 08:42:32;;;;;;;4.60;2.97;;;;;;;23.87;95.10;96604.94;5114489;28;20652;-55
2023/09/17 08:45:00;;;;;;;3.83;3.53;;;;;;;23.98;93.60;96595.22;5113092;28;20209;-55
2023/09/17 08:47:26;;;;;;;3.58;3.20;;;;;;;24.15;89.36;96607.91;5112315;28;20209;-56
2023/09/17 08:49:53;;;;;;;4.65;2.80;;;;;;;24.39;89.87;96608.81;5111721;28;20196;-57
2023/09/17 08:52:20;;;;;;;3.83;2.90;;;;;;;24.60;91.12;96592.03;5111825;28;20205;-56
2023/09/17 08:54:50;;;;;;;3.00;2.80;;;;;;;24.83;86.43;96598.56;5110255;28;20212;-58
2023/09/17 08:57:22;;;;;;;2.63;2.47;;;;;;;25.03;79.72;96599.06;5113344;28;20211;-56
2023/09/17 08:59:55;;;;;;;2.63;2.42;;;;;;;25.25;82.08;96592.00;5117742;28;20802;-55
2023/09/17 09:02:22;;;;;;;3.60;2.53;;;;;;;25.44;78.55;96590.81;5118634;28;20548;-55
2023/09/17 09:04:54;;;;;;;2.70;2.50;;;;;;;25.60;81.26;96587.41;5120944;28;20249;-56
2023/09/17 09:07:23;;;;;;;4.22;2.60;;;;;;;25.74;75.18;96594.22;5118311;28;20205;-57
2023/09/17 09:09:51;;;;;;;3.00;2.38;;;;;;;25.88;73.13;96591.22;5117311;28;20220;-57
2023/09/17 09:12:18;;;;;;;2.38;2.17;;;;;;;25.98;73.45;96591.41;5117779;28;20216;-57
2023/09/17 09:14:45;;;;;;;2.63;2.42;;;;;;;26.21;73.69;96584.06;5117258;28;20197;-57
2023/09/17 09:17:12;;;;;;;2.20;2.10;;;;;;;26.33;73.13;96585.88;5117424;28;20235;-58
2023/09/17 09:19:38;;;;;;;3.20;2.10;;;;;;;26.51;73.21;96582.94;5116950;28;20213;-56
2023/09/17 09:22:05;;;;;;;2.22;2.13;;;;;;;26.59;71.52;96580.69;5117500;28;20200;-56
2023/09/17 09:24:41;;;;;;;3.17;2.40;;;;;;;26.77;72.79;96570.66;5117155;28;20196;-57
2023/09/17 09:27:09;;;;;;;3.08;2.63;;;;;;;26.61;69.97;96575.81;5117926;28;20201;-57
2023/09/17 09:29:36;;;;;;;2.95;2.75;;;;;;;26.64;73.99;96561.75;5116332;28;20244;-56
2023/09/17 09:32:03;;;;;;;2.70;2.50;;;;;;;26.65;75.19;96557.97;5117455;28;20678;-56
2023/09/17 09:34:30;;;;;;;3.22;2.85;;;;;;;26.62;72.36;96563.91;5118615;28;20200;-57
2023/09/17 09:36:56;;;;;;;3.55;2.95;;;;;;;26.65;73.64;96557.97;5118799;28;20215;-57
2023/09/17 09:39:23;;;;;;;3.05;2.80;;;;;;;26.70;73.33;96563.50;5118899;28;20540;-56
2023/09/17 09:41:50;;;;;;;2.80;2.70;;;;;;;26.88;75.88;96558.94;5120176;28;20205;-57
2023/09/17 09:44:18;;;;;;;3.85;3.60;;;;;;;26.74;73.38;96563.84;5117632;28;20593;-56
2023/09/17 09:46:45;;;;;;;3.70;3.40;;;;;;;26.84;76.10;96552.34;5117212;28;20235;-56
2023/09/17 09:49:11;;;;;;;4.22;3.88;;;;;;;27.18;79.47;96546.63;5118041;28;20259;-57
2023/09/17 09:51:38;;;;;;;4.35;3.95;;;;;;;27.09;78.37;96547.31;5117246;28;20593;-57
2023/09/17 09:54:05;;;;;;;5.35;3.80;;;;;;;27.14;77.97;96547.38;5117387;28;20212;-56
2023/09/17 09:56:31;;;;;;;4.47;3.80;;;;;;;27.21;79.17;96550.72;5117400;28;20628;-57
2023/09/17 09:58:59;;;;;;;3.90;3.70;;;;;;;27.24;79.44;96546.72;5117519;28;20204;-57
2023/09/17 10:01:28;;;;;;;4.55;4.10;;;;;;;27.07;77.41;96547.53;5117355;28;21455;-58
2023/09/17 10:03:57;;;;;;;4.57;4.15;;;;;;;27.11;76.78;96547.88;5117469;28;20205;-57
2023/09/17 10:06:24;;;;;;;4.20;3.80;;;;;;;27.34;75.54;96547.66;5117963;28;20676;-55
2023/09/17 10:08:52;;;;;;;7.47;4.40;;;;;;;27.52;79.20;96544.69;5126185;28;20215;-58
2023/09/17 10:11:19;;;;;;;4.18;3.85;;;;;;;27.41;75.50;96537.44;5117075;28;20194;-57
2023/09/17 10:13:45;;;;;;;3.85;3.42;;;;;;;27.61;70.31;96532.28;5115937;28;20201;-57
2023/09/17 10:16:14;;;;;;;4.28;2.78;;;;;;;27.65;74.13;96530.72;5114248;28;20218;-58
2023/09/17 10:18:43;;;;;;;5.97;3.35;;;;;;;27.87;71.09;96533.44;5114448;28;20266;-56
2023/09/17 10:21:10;;;;;;;5.07;3.25;;;;;;;28.05;72.16;96534.97;5112634;28;20205;-56
2023/09/17 10:23:37;;;;;;;3.83;2.88;;;;;;;27.99;70.69;96525.09;5113657;28;20215;-57
2023/09/17 10:26:04;;;;;;;3.20;3.00;;;;;;;28.16;71.16;96528.59;5113439;28;20217;-57
2023/09/17 10:28:32;;;;;;;3.40;3.20;;;;;;;27.89;70.04;96523.09;5113608;28;20808;-58
2023/09/17 10:30:59;;;;;;;5.00;3.05;;;;;;;27.88;69.86;96526.09;5112421;28;20939;-56
2023/09/17 10:33:28;;;;;;;2.92;2.72;;;;;;;27.96;67.00;96521.00;5113773;28;20204;-57
2023/09/17 10:35:56;;;;;;;3.10;2.80;;;;;;;28.17;67.18;96524.78;5113544;28;20205;-56
2023/09/17 10:38:24;;;;;;;2.80;2.55;;;;;;;28.12;66.30;96517.41;5114273;28;20201;-57
2023/09/17 10:40:51;;;;;;;3.22;2.78;;;;;;;28.23;70.13;96510.19;5113141;28;20542;-55
2023/09/17 10:43:18;;;;;;;7.45;6.70;;;;;;;28.48;69.39;96509.59;5113547;28;20204;-57
2023/09/17 10:45:45;;;;;;;3.10;2.83;;;;;;;28.43;66.72;96510.34;5112814;28;21174;-57
2023/09/17 10:48:12;;;;;;;3.08;2.70;;;;;;;28.54;64.97;96509.38;5113749;28;20216;-57
2023/09/17 10:50:39;;;;;;;2.63;2.38;;;;;;;28.69;68.80;96508.72;5113826;28;20209;-56
2023/09/17 10:53:07;;;;;;;2.67;2.47;;;;;;;28.51;62.42;96501.72;5113457;28;20216;-57
2023/09/17 10:55:37;;;;;;;3.58;3.10;;;;;;;28.74;67.92;96497.84;5113099;28;20193;-57
2023/09/17 10:58:10;;;;;;;2.97;2.63;;;;;;;28.76;65.77;96489.44;5113732;28;20193;-57
2023/09/17 11:00:37;;;;;;;2.75;2.55;;;;;;;28.82;63.64;96486.47;5113073;28;20201;-57
2023/09/17 11:03:05;;;;;;;2.75;2.50;;;;;;;28.77;61.43;96497.31;5113104;28;20240;-57
2023/09/17 11:05:32;;;;;;;3.63;2.28;;;;;;;28.56;63.59;96490.06;5113749;28;20201;-56
2023/09/17 11:08:01;;;;;;;2.20;2.10;;;;;;;28.47;61.49;96481.56;5113714;28;20229;-57
2023/09/17 11:10:30;;;;;;;4.75;2.63;;;;;;;28.43;63.16;96485.06;5112870;28;20206;-56
2023/09/17 11:12:56;;;;;;;2.75;2.55;;;;;;;28.48;64.35;96483.22;5113630;28;20201;-57
2023/09/17 11:15:23;;;;;;;2.75;2.50;;;;;;;28.42;63.16;96478.78;5112776;28;20216;-58
2023/09/17 11:17:51;;;;;;;4.00;2.28;;;;;;;28.59;62.38;96478.66;5113163;28;20197;-57
2023/09/17 11:20:18;;;;;;;4.47;2.15;;;;;;;28.77;64.90;96472.03;5112386;28;20216;-56
2023/09/17 11:22:50;;;;;;;2.10;1.90;;;;;;;28.62;62.51;96476.25;5112999;28;20267;-58
2023/09/17 11:25:20;;;;;;;2.45;2.25;;;;;;;28.70;63.87;96474.16;5112781;28;20205;-55
2023/09/17 11:27:51;;;;;;;4.38;2.30;;;;;;;28.77;63.28;96474.75;5112061;28;20221;-55